Time;durP1;ratioP1;P1;durP2;ratioP2;P2;SDS_P1;SDS_P2;PMS_P1;PMS_P2;Temp;Humidity;BMP_temperature;BMP_pressure;BME280_temperature;BME280_humidity;BME280_pressure;Samples;Min_cycle;Max_cycle;Signal;HPM_P1;HPM_P2
2023/07/22 00:00:56;;;;;;;5.68;1.67;;;13.20;99.90;;;;;;5055569;28;20049;-72
2023/07/22 00:03:23;;;;;;;3.35;1.75;;;13.20;99.90;;;;;;5062130;28;20549;-72
2023/07/22 00:05:49;;;;;;;5.10;1.70;;;13.20;99.90;;;;;;5063914;28;20077;-73
2023/07/22 00:08:14;;;;;;;3.85;1.80;;;13.20;99.90;;;;;;5061605;28;20404;-73
2023/07/22 00:10:43;;;;;;;7.65;2.20;;;13.20;99.90;;;;;;5081069;28;20032;-71
2023/07/22 00:13:09;;;;;;;5.47;1.85;;;13.30;99.90;;;;;;5080124;28;20043;-74
2023/07/22 00:15:35;;;;;;;4.00;1.90;;;13.20;99.90;;;;;;5046847;28;20044;-73
2023/07/22 00:18:00;;;;;;;4.90;1.73;;;13.20;99.90;;;;;;5063607;28;20032;-72
2023/07/22 00:20:26;;;;;;;5.30;2.13;;;13.30;99.90;;;;;;5041730;28;20036;-72
2023/07/22 00:22:52;;;;;;;4.60;2.08;;;13.20;99.90;;;;;;5055797;28;20428;-72
2023/07/22 00:25:18;;;;;;;6.93;1.98;;;13.30;99.90;;;;;;5040756;28;20068;-73
2023/07/22 00:27:43;;;;;;;4.20;1.95;;;13.30;99.90;;;;;;5058857;28;20044;-73
2023/07/22 00:30:10;;;;;;;4.53;2.28;;;13.30;99.90;;;;;;5057759;28;20045;-73
2023/07/22 00:32:40;;;;;;;5.15;2.58;;;13.30;99.90;;;;;;5060044;28;20040;-72
2023/07/22 00:35:07;;;;;;;5.55;2.17;;;13.30;99.90;;;;;;5061272;28;20032;-72
2023/07/22 00:37:33;;;;;;;3.83;2.00;;;13.30;99.90;;;;;;5063524;28;20048;-73
2023/07/22 00:39:58;;;;;;;5.57;2.20;;;13.30;99.90;;;;;;5067558;28;20036;-73
2023/07/22 00:42:25;;;;;;;7.13;2.60;;;13.30;99.90;;;;;;5081659;28;20028;-73
2023/07/22 00:44:50;;;;;;;3.58;2.15;;;13.30;99.90;;;;;;5078719;28;20040;-73
2023/07/22 00:47:17;;;;;;;6.32;2.30;;;13.30;99.90;;;;;;5080523;28;20040;-74
2023/07/22 00:49:44;;;;;;;7.72;2.50;;;13.30;99.90;;;;;;5081836;28;20038;-73
2023/07/22 00:52:09;;;;;;;5.45;2.67;;;13.30;99.90;;;;;;5058029;28;20047;-74
2023/07/22 00:54:35;;;;;;;5.63;2.45;;;13.20;99.90;;;;;;5081866;28;20040;-73
2023/07/22 00:57:01;;;;;;;5.85;2.17;;;13.20;99.90;;;;;;5062129;28;20036;-73
2023/07/22 00:59:27;;;;;;;5.93;2.47;;;13.20;99.90;;;;;;5069910;28;20028;-73
2023/07/22 01:01:53;;;;;;;8.13;2.72;;;13.10;99.90;;;;;;5062546;28;20052;-73
2023/07/22 01:04:21;;;;;;;4.07;2.40;;;13.10;99.90;;;;;;5077483;28;20090;-72
2023/07/22 01:06:49;;;;;;;3.95;2.28;;;13.00;99.90;;;;;;5061108;28;20111;-73
2023/07/22 01:09:14;;;;;;;5.65;3.05;;;13.00;99.90;;;;;;5058886;28;20041;-73
2023/07/22 01:11:40;;;;;;;4.47;2.53;;;13.00;99.90;;;;;;5059771;28;20040;-72
2023/07/22 01:14:07;;;;;;;6.32;2.85;;;12.90;99.90;;;;;;5059919;28;20099;-72
2023/07/22 01:16:34;;;;;;;7.97;2.55;;;12.80;99.90;;;;;;5042008;28;20440;-72
2023/07/22 01:19:00;;;;;;;5.20;2.40;;;12.80;99.90;;;;;;5040300;28;20044;-72
2023/07/22 01:21:26;;;;;;;7.63;2.47;;;12.70;99.90;;;;;;5051208;28;20109;-72
2023/07/22 01:23:53;;;;;;;6.20;2.60;;;12.70;99.90;;;;;;5053489;28;20040;-72
2023/07/22 01:26:19;;;;;;;4.63;2.22;;;12.80;99.90;;;;;;5059768;28;20089;-71
2023/07/22 01:28:45;;;;;;;7.47;2.30;;;12.70;99.90;;;;;;5059713;28;20045;-73
2023/07/22 01:31:11;;;;;;;4.93;2.38;;;12.70;99.90;;;;;;5040575;28;20047;-73
2023/07/22 01:33:37;;;;;;;4.43;2.42;;;12.70;99.90;;;;;;5039988;28;20044;-73
2023/07/22 01:36:03;;;;;;;6.15;2.50;;;12.70;99.90;;;;;;5070173;28;20045;-73
2023/07/22 01:38:31;;;;;;;7.45;2.20;;;12.70;99.90;;;;;;5062039;28;20486;-73
2023/07/22 01:40:56;;;;;;;5.43;2.65;;;12.70;99.90;;;;;;5064323;28;20035;-73
2023/07/22 01:43:22;;;;;;;4.60;2.17;;;12.60;99.90;;;;;;5063957;28;20033;-73
2023/07/22 01:45:48;;;;;;;5.80;2.67;;;12.60;99.90;;;;;;5062059;28;20045;-72
2023/07/22 01:48:13;;;;;;;6.32;2.75;;;12.60;99.90;;;;;;5066391;28;20080;-72
2023/07/22 01:50:39;;;;;;;5.32;2.47;;;12.50;99.90;;;;;;5068046;28;20053;-74
2023/07/22 01:53:05;;;;;;;6.63;2.70;;;12.50;99.90;;;;;;5060923;28;20041;-73
2023/07/22 01:55:32;;;;;;;8.10;3.75;;;12.50;99.90;;;;;;5063837;28;20508;-72
2023/07/22 01:57:58;;;;;;;5.25;3.13;;;12.60;99.90;;;;;;5065425;28;20033;-72
2023/07/22 02:00:24;;;;;;;6.15;3.00;;;12.50;99.90;;;;;;5057638;28;20072;-73
2023/07/22 02:02:50;;;;;;;5.82;2.95;;;12.50;99.90;;;;;;5059773;28;20732;-72
2023/07/22 02:05:16;;;;;;;8.05;3.10;;;12.60;99.90;;;;;;5084937;28;20033;-72
2023/07/22 02:07:42;;;;;;;5.00;2.70;;;12.60;99.90;;;;;;5079252;28;20040;-72
2023/07/22 02:10:09;;;;;;;6.43;3.35;;;12.60;99.90;;;;;;5048200;28;20129;-72
2023/07/22 02:12:35;;;;;;;7.45;3.38;;;12.60;99.90;;;;;;5082919;28;20821;-72
2023/07/22 02:15:02;;;;;;;5.53;2.88;;;12.70;99.90;;;;;;5085666;28;20588;-73
2023/07/22 02:17:28;;;;;;;8.05;3.00;;;12.70;99.90;;;;;;5066269;28;20044;-72
2023/07/22 02:19:54;;;;;;;6.32;2.92;;;12.70;99.90;;;;;;5082658;28;20044;-72
2023/07/22 02:22:20;;;;;;;6.75;3.25;;;12.70;99.90;;;;;;5081412;28;20055;-72
2023/07/22 02:24:45;;;;;;;8.50;3.45;;;12.80;99.90;;;;;;5047179;28;20036;-72
2023/07/22 02:27:11;;;;;;;6.90;3.05;;;12.70;99.90;;;;;;5066274;28;20047;-73
2023/07/22 02:29:37;;;;;;;7.68;3.40;;;12.70;99.90;;;;;;5082381;28;20040;-74
2023/07/22 02:32:03;;;;;;;4.85;3.08;;;12.70;99.90;;;;;;5077289;28;20055;-74
2023/07/22 02:34:29;;;;;;;5.00;3.28;;;12.70;99.90;;;;;;5067613;28;20135;-72
2023/07/22 02:36:54;;;;;;;6.25;3.75;;;12.70;99.90;;;;;;5084020;28;20169;-73
2023/07/22 02:39:20;;;;;;;6.10;3.20;;;12.60;99.90;;;;;;5065683;28;20040;-72
2023/07/22 02:41:46;;;;;;;8.38;4.00;;;12.60;99.90;;;;;;5076198;28;20055;-72
2023/07/22 02:44:12;;;;;;;9.10;3.78;;;12.60;99.90;;;;;;5085231;28;20048;-73
2023/07/22 02:46:38;;;;;;;6.32;3.28;;;12.60;99.90;;;;;;5061234;28;20507;-72
2023/07/22 02:49:05;;;;;;;7.15;3.42;;;12.60;99.90;;;;;;5082773;28;20075;-72
2023/07/22 02:51:30;;;;;;;9.00;3.88;;;12.50;99.90;;;;;;5065829;28;20072;-72
2023/07/22 02:53:56;;;;;;;8.80;3.95;;;12.50;99.90;;;;;;5081353;28;20055;-72
2023/07/22 02:56:23;;;;;;;8.50;3.92;;;12.60;99.90;;;;;;5063212;28;20102;-72
2023/07/22 02:58:50;;;;;;;7.43;3.58;;;12.50;99.90;;;;;;5068065;28;20036;-72
2023/07/22 03:01:16;;;;;;;5.93;4.13;;;12.50;99.90;;;;;;5085301;28;20044;-72
2023/07/22 03:03:41;;;;;;;6.75;3.63;;;12.50;99.90;;;;;;5065307;28;20063;-72
2023/07/22 03:06:09;;;;;;;6.72;4.30;;;12.60;99.90;;;;;;5047071;28;20047;-72
2023/07/22 03:08:35;;;;;;;7.05;3.50;;;12.60;99.90;;;;;;5051581;28;20079;-73
2023/07/22 03:11:00;;;;;;;7.53;3.78;;;12.60;99.90;;;;;;5083749;28;20093;-73
2023/07/22 03:13:29;;;;;;;10.13;4.30;;;12.70;99.90;;;;;;5065480;28;20040;-73
2023/07/22 03:15:56;;;;;;;10.68;4.65;;;12.70;99.90;;;;;;5047087;28;20440;-73
2023/07/22 03:18:22;;;;;;;6.57;3.97;;;12.70;99.90;;;;;;5041701;28;20519;-73
2023/07/22 03:20:48;;;;;;;8.95;4.45;;;12.80;99.90;;;;;;5070190;28;20068;-73
2023/07/22 03:23:13;;;;;;;10.10;4.55;;;12.80;99.90;;;;;;5044944;28;20064;-72
2023/07/22 03:25:41;;;;;;;5.90;3.92;;;12.80;99.90;;;;;;5057276;28;20095;-73
2023/07/22 03:28:07;;;;;;;9.55;4.70;;;12.80;99.90;;;;;;5029879;28;20037;-73
2023/07/22 03:30:33;;;;;;;8.02;4.85;;;12.80;99.90;;;;;;5045273;28;20097;-72
2023/07/22 03:33:00;;;;;;;10.85;4.53;;;12.90;99.90;;;;;;5077805;28;20449;-72
2023/07/22 03:35:26;;;;;;;8.38;4.35;;;12.90;99.90;;;;;;5081664;28;20051;-73
2023/07/22 03:37:52;;;;;;;8.07;4.45;;;12.80;99.90;;;;;;5061251;28;20040;-73
2023/07/22 03:40:21;;;;;;;8.52;4.80;;;12.90;99.90;;;;;;5044065;28;20384;-72
2023/07/22 03:42:49;;;;;;;7.05;4.40;;;12.80;99.90;;;;;;5045568;28;20120;-73
2023/07/22 03:45:14;;;;;;;10.75;5.28;;;12.80;99.90;;;;;;5043474;28;20041;-72
2023/07/22 03:47:40;;;;;;;10.52;5.35;;;12.80;99.90;;;;;;5042131;28;20037;-72
2023/07/22 03:50:07;;;;;;;9.25;4.70;;;12.90;99.90;;;;;;5062170;28;20115;-72
2023/07/22 03:52:33;;;;;;;10.40;5.00;;;12.90;99.90;;;;;;5058493;28;20052;-72
2023/07/22 03:54:58;;;;;;;9.93;4.93;;;12.90;99.90;;;;;;5048379;28;20045;-72
2023/07/22 03:57:27;;;;;;;9.38;5.00;;;12.90;99.90;;;;;;5048696;28;20047;-73
2023/07/22 03:59:56;;;;;;;9.02;4.60;;;12.90;99.90;;;;;;5042492;28;20045;-73
2023/07/22 04:02:23;;;;;;;12.73;6.63;;;12.90;99.90;;;;;;5060083;28;20131;-72
2023/07/22 04:04:50;;;;;;;10.35;5.25;;;12.90;99.90;;;;;;5050358;28;20574;-72
2023/07/22 04:07:15;;;;;;;11.32;6.03;;;12.90;99.90;;;;;;5045873;28;20479;-73
2023/07/22 04:09:41;;;;;;;10.95;6.38;;;13.00;99.90;;;;;;5059729;28;20055;-72
2023/07/22 04:12:07;;;;;;;12.77;6.95;;;13.10;99.90;;;;;;5036721;28;20036;-72
2023/07/22 04:14:33;;;;;;;16.38;7.32;;;13.30;99.90;;;;;;5044963;28;20735;-72
2023/07/22 04:16:59;;;;;;;13.40;7.35;;;13.40;99.90;;;;;;5057990;28;20048;-72
2023/07/22 04:19:24;;;;;;;13.35;7.20;;;13.30;99.90;;;;;;5059424;28;20036;-73
2023/07/22 04:21:50;;;;;;;12.27;7.68;;;13.30;99.90;;;;;;5060462;28;20095;-73
2023/07/22 04:24:16;;;;;;;12.32;7.20;;;13.30;99.90;;;;;;5061310;28;20071;-73
2023/07/22 04:26:43;;;;;;;17.67;8.55;;;13.40;99.90;;;;;;5057525;28;20040;-73
2023/07/22 04:29:09;;;;;;;12.20;7.53;;;13.40;99.90;;;;;;5060329;28;20043;-74
2023/07/22 04:31:35;;;;;;;16.13;8.57;;;13.40;99.90;;;;;;5062057;28;20045;-73
2023/07/22 04:34:00;;;;;;;15.20;8.50;;;13.50;99.90;;;;;;5058634;28;20032;-73
2023/07/22 04:36:26;;;;;;;14.43;8.60;;;13.50;99.90;;;;;;5039660;28;20067;-73
2023/07/22 04:38:52;;;;;;;16.75;8.63;;;13.60;99.90;;;;;;5059327;28;20041;-73
2023/07/22 04:41:18;;;;;;;13.57;8.32;;;13.50;99.90;;;;;;5039534;28;20090;-73
2023/07/22 04:43:43;;;;;;;13.75;8.63;;;13.60;99.90;;;;;;5056039;28;20045;-73
2023/07/22 04:46:09;;;;;;;14.52;8.32;;;13.60;99.90;;;;;;5028071;28;20049;-73
2023/07/22 04:48:36;;;;;;;14.88;9.27;;;13.70;99.90;;;;;;5061438;28;20043;-73
2023/07/22 04:51:02;;;;;;;12.20;7.43;;;13.70;99.90;;;;;;5046036;28;20135;-73
2023/07/22 04:53:28;;;;;;;14.43;8.30;;;13.70;99.90;;;;;;5083724;28;20669;-73
2023/07/22 04:55:55;;;;;;;14.52;7.65;;;13.80;99.90;;;;;;5077823;28;20443;-73
2023/07/22 04:58:21;;;;;;;15.43;8.82;;;13.80;99.90;;;;;;5048421;28;20474;-73
2023/07/22 05:00:48;;;;;;;17.77;9.20;;;13.90;99.90;;;;;;5062416;28;20066;-73
2023/07/22 05:03:14;;;;;;;16.48;9.00;;;13.90;99.90;;;;;;5044308;28;20471;-73
2023/07/22 05:05:40;;;;;;;14.82;9.00;;;13.90;99.90;;;;;;5065746;28;20067;-73
2023/07/22 05:08:08;;;;;;;15.30;9.00;;;13.90;99.90;;;;;;5066215;28;20063;-73
2023/07/22 05:10:33;;;;;;;15.90;9.25;;;13.90;99.90;;;;;;5088133;28;20058;-74
2023/07/22 05:12:59;;;;;;;21.10;10.60;;;14.00;99.90;;;;;;5087509;28;20123;-74
2023/07/22 05:15:25;;;;;;;18.45;9.57;;;14.00;99.90;;;;;;5086067;28;20444;-74
2023/07/22 05:17:51;;;;;;;14.82;9.65;;;14.10;99.90;;;;;;5069969;28;20051;-74
2023/07/22 05:20:17;;;;;;;16.08;9.15;;;14.20;99.90;;;;;;5064232;28;20047;-73
2023/07/22 05:22:42;;;;;;;18.30;9.52;;;14.20;99.90;;;;;;5081369;28;22048;-73
2023/07/22 05:25:09;;;;;;;18.00;9.55;;;14.30;99.90;;;;;;5080756;28;20071;-73
2023/07/22 05:27:35;;;;;;;15.52;8.82;;;14.40;99.90;;;;;;5084240;28;20032;-74
2023/07/22 05:30:01;;;;;;;15.38;8.68;;;14.40;99.90;;;;;;5069828;28;20047;-74
2023/07/22 05:32:29;;;;;;;16.30;9.15;;;14.40;99.90;;;;;;5080899;28;22437;-74
2023/07/22 05:34:56;;;;;;;15.48;8.50;;;14.50;99.90;;;;;;5065829;28;20044;-74
2023/07/22 05:37:22;;;;;;;14.55;8.45;;;14.50;99.90;;;;;;5066850;28;20048;-74
2023/07/22 05:39:48;;;;;;;13.63;7.95;;;14.60;99.90;;;;;;5084576;28;20051;-73
2023/07/22 05:42:13;;;;;;;14.90;8.32;;;14.70;99.90;;;;;;5063570;28;20048;-74
2023/07/22 05:44:39;;;;;;;10.63;7.53;;;14.70;99.90;;;;;;5084955;28;20046;-74
2023/07/22 05:47:05;;;;;;;13.52;7.82;;;14.90;99.90;;;;;;5098690;28;20020;-74
2023/07/22 05:49:31;;;;;;;14.80;7.97;;;14.90;99.90;;;;;;5108886;28;20047;-74
2023/07/22 05:51:56;;;;;;;13.88;8.35;;;15.00;99.90;;;;;;5086911;28;20081;-73
2023/07/22 05:54:22;;;;;;;15.32;8.82;;;15.10;99.90;;;;;;5082404;28;20047;-74
2023/07/22 05:56:48;;;;;;;14.88;9.02;;;15.30;99.90;;;;;;5083341;28;20063;-73
2023/07/22 05:59:13;;;;;;;16.27;9.63;;;15.30;99.90;;;;;;5064927;28;20056;-73
2023/07/22 06:01:40;;;;;;;18.25;10.63;;;15.40;99.90;;;;;;5061955;28;20044;-74
2023/07/22 06:04:06;;;;;;;16.88;10.38;;;15.40;99.90;;;;;;5063123;28;20044;-73
2023/07/22 06:06:31;;;;;;;17.58;10.52;;;15.50;99.90;;;;;;5063334;28;20472;-73
2023/07/22 06:08:57;;;;;;;17.30;10.02;;;15.60;99.90;;;;;;5063053;28;20048;-73
2023/07/22 06:11:23;;;;;;;19.17;11.18;;;15.70;99.90;;;;;;5060579;28;20135;-74
2023/07/22 06:13:49;;;;;;;17.40;11.20;;;15.70;99.90;;;;;;5062163;28;20032;-74
2023/07/22 06:16:14;;;;;;;16.85;10.98;;;15.80;99.90;;;;;;5061825;28;20036;-74
2023/07/22 06:18:40;;;;;;;17.25;9.65;;;15.80;99.90;;;;;;5060790;28;20049;-72
2023/07/22 06:21:06;;;;;;;17.45;10.50;;;15.90;99.90;;;;;;5062839;28;20033;-74
2023/07/22 06:23:32;;;;;;;17.73;10.27;;;15.80;99.90;;;;;;5060977;28;20071;-75
2023/07/22 06:25:57;;;;;;;17.30;11.00;;;15.80;99.90;;;;;;5061578;28;20045;-75
2023/07/22 06:28:23;;;;;;;19.92;10.73;;;15.90;99.90;;;;;;5062448;28;20037;-75
2023/07/22 06:30:49;;;;;;;18.90;10.32;;;15.80;99.90;;;;;;5059168;28;20445;-76
2023/07/22 06:33:16;;;;;;;18.25;11.20;;;15.90;99.90;;;;;;5059255;28;20041;-75
2023/07/22 06:35:42;;;;;;;17.33;10.52;;;15.80;99.90;;;;;;5061576;28;20039;-75
2023/07/22 06:38:07;;;;;;;20.27;11.48;;;15.80;99.90;;;;;;5063313;28;20484;-76
2023/07/22 06:40:33;;;;;;;15.70;10.93;;;15.90;99.90;;;;;;5042481;28;20052;-74
2023/07/22 06:42:59;;;;;;;19.17;11.98;;;16.00;99.90;;;;;;5059844;28;20186;-69
2023/07/22 06:45:25;;;;;;;20.13;11.05;;;16.10;99.90;;;;;;5044542;28;20048;-75
2023/07/22 06:47:50;;;;;;;20.55;10.85;;;16.10;99.90;;;;;;5043099;28;20049;-76
2023/07/22 06:50:16;;;;;;;15.95;11.43;;;16.20;99.90;;;;;;5042503;28;20041;-76
2023/07/22 06:52:42;;;;;;;21.88;11.63;;;16.30;99.90;;;;;;5041241;28;20511;-75
2023/07/22 06:55:07;;;;;;;19.70;11.48;;;16.40;99.90;;;;;;5061176;28;20120;-75
2023/07/22 06:57:33;;;;;;;17.05;10.30;;;16.50;99.90;;;;;;5059759;28;20157;-75
2023/07/22 06:59:59;;;;;;;17.85;10.38;;;16.50;99.90;;;;;;5059844;28;20052;-75
2023/07/22 07:02:25;;;;;;;18.52;11.00;;;16.60;99.90;;;;;;5053097;28;20048;-78
2023/07/22 07:04:51;;;;;;;16.33;10.20;;;16.80;99.90;;;;;;5064457;28;20044;-81
2023/07/22 07:07:17;;;;;;;16.33;9.90;;;16.90;99.90;;;;;;5064325;28;20081;-78
2023/07/22 07:09:42;;;;;;;18.88;10.35;;;16.90;99.90;;;;;;5061235;28;20075;-80
2023/07/22 07:12:08;;;;;;;16.30;10.27;;;17.00;99.90;;;;;;5053032;28;20052;-78
2023/07/22 07:14:34;;;;;;;14.88;9.77;;;17.00;99.90;;;;;;5069200;28;20624;-79
2023/07/22 07:17:01;;;;;;;14.73;8.80;;;16.90;99.90;;;;;;5064068;28;20044;-79
2023/07/22 07:19:27;;;;;;;15.77;9.93;;;17.00;99.90;;;;;;5063245;28;20048;-79
2023/07/22 07:21:53;;;;;;;15.68;10.05;;;16.90;99.90;;;;;;5068554;28;20037;-79
2023/07/22 07:24:18;;;;;;;14.50;9.40;;;16.90;99.90;;;;;;5067921;28;20049;-80
2023/07/22 07:26:44;;;;;;;15.93;10.30;;;17.00;99.90;;;;;;5066861;28;20547;-80
2023/07/22 07:29:10;;;;;;;15.00;9.93;;;17.00;99.90;;;;;;5066878;28;20492;-80
2023/07/22 07:31:36;;;;;;;11.45;7.70;;;17.00;99.90;;;;;;5066174;28;20052;-81
2023/07/22 07:34:02;;;;;;;10.98;7.78;;;17.20;99.90;;;;;;5066724;28;20041;-79
2023/07/22 07:36:28;;;;;;;12.68;8.02;;;17.30;99.90;;;;;;5063903;28;20059;-81
2023/07/22 07:38:53;;;;;;;13.93;8.55;;;17.40;99.90;;;;;;5064028;28;20406;-81
2023/07/22 07:41:19;;;;;;;11.43;8.32;;;17.50;99.90;;;;;;5062598;28;20531;-81
2023/07/22 07:43:45;;;;;;;11.63;7.20;;;17.80;99.90;;;;;;5065245;28;20606;-81
2023/07/22 07:46:29;;;;;;;11.40;7.60;;;18.20;99.90;;;;;;5064949;28;20629;-81
2023/07/22 07:49:00;;;;;;;10.73;7.43;;;18.40;99.90;;;;;;5068108;28;20072;-81
2023/07/22 07:51:27;;;;;;;11.52;7.47;;;18.50;99.90;;;;;;5061056;28;20044;-82
2023/07/22 07:53:54;;;;;;;12.32;7.55;;;18.60;99.90;;;;;;5032367;28;20040;-82
2023/07/22 07:56:20;;;;;;;10.57;7.30;;;18.60;99.90;;;;;;5062941;28;20047;-81
2023/07/22 07:58:47;;;;;;;10.25;8.00;;;18.70;99.90;;;;;;5070508;28;20115;-82
2023/07/22 08:01:14;;;;;;;11.45;7.05;;;18.80;99.90;;;;;;5087673;28;20047;-82
2023/07/22 08:03:41;;;;;;;10.85;7.18;;;18.80;99.90;;;;;;5050124;28;20049;-82
2023/07/22 08:06:11;;;;;;;12.23;7.47;;;18.70;99.90;;;;;;5058746;28;20044;-80
2023/07/22 08:08:37;;;;;;;9.23;6.90;;;18.60;99.90;;;;;;5061923;28;20074;-80
2023/07/22 08:11:04;;;;;;;8.95;6.18;;;18.50;99.90;;;;;;5062203;28;20511;-79
2023/07/22 08:13:31;;;;;;;8.75;5.28;;;18.40;99.90;;;;;;5063396;28;20047;-80
2023/07/22 08:16:02;;;;;;;8.68;5.75;;;18.40;99.90;;;;;;5057999;28;20036;-80
2023/07/22 08:18:29;;;;;;;7.57;4.60;;;18.40;99.90;;;;;;5077034;28;20040;-80
2023/07/22 08:20:55;;;;;;;6.18;4.45;;;18.30;99.90;;;;;;5069817;28;20426;-80
2023/07/22 08:23:21;;;;;;;6.82;4.50;;;18.40;99.90;;;;;;5046443;28;20669;-80
2023/07/22 08:25:47;;;;;;;6.05;4.18;;;18.40;99.90;;;;;;5068678;28;20541;-80
2023/07/22 08:28:13;;;;;;;6.82;4.30;;;18.50;99.90;;;;;;5068625;28;20241;-81
2023/07/22 08:30:40;;;;;;;7.53;4.72;;;18.50;99.90;;;;;;5064184;28;20120;-80
2023/07/22 08:33:07;;;;;;;6.30;4.65;;;18.50;99.90;;;;;;5049587;28;20109;-81
2023/07/22 08:35:35;;;;;;;7.93;5.18;;;18.50;99.90;;;;;;5067961;28;20463;-81
2023/07/22 08:38:02;;;;;;;6.65;4.05;;;18.50;99.90;;;;;;5065223;28;20066;-81
2023/07/22 08:40:32;;;;;;;6.40;4.05;;;18.50;99.90;;;;;;5047161;28;20040;-81
2023/07/22 08:42:59;;;;;;;7.35;4.22;;;18.60;99.90;;;;;;5083619;28;20536;-81
2023/07/22 08:45:29;;;;;;;8.00;4.47;;;18.60;99.90;;;;;;5087003;28;20039;-81
2023/07/22 08:47:57;;;;;;;7.32;5.03;;;18.70;99.90;;;;;;5067104;28;20515;-81
2023/07/22 08:50:29;;;;;;;7.95;5.50;;;18.70;99.90;;;;;;5085540;28;20032;-82
2023/07/22 08:52:54;;;;;;;8.57;5.32;;;18.70;99.90;;;;;;5068648;28;20065;-81
2023/07/22 08:55:20;;;;;;;9.38;5.93;;;18.70;99.90;;;;;;5085486;28;20044;-81
2023/07/22 08:57:48;;;;;;;8.45;5.40;;;18.60;99.90;;;;;;5065532;28;20250;-82
2023/07/22 09:00:14;;;;;;;11.85;6.43;;;18.50;99.90;;;;;;5080162;28;20055;-82
2023/07/22 09:02:41;;;;;;;12.98;8.77;;;18.30;99.90;;;;;;5061406;28;20048;-81
2023/07/22 09:05:09;;;;;;;15.43;9.52;;;18.20;99.90;;;;;;5044924;28;20059;-86
2023/07/22 09:07:35;;;;;;;16.45;10.68;;;18.10;99.90;;;;;;5037728;28;20151;-82
2023/07/22 09:10:02;;;;;;;14.55;9.93;;;17.90;99.90;;;;;;5056185;28;20660;-75
2023/07/22 09:12:28;;;;;;;12.50;8.82;;;17.70;99.90;;;;;;5046920;28;20122;-80
2023/07/22 09:14:55;;;;;;;13.13;8.95;;;17.60;99.90;;;;;;5046491;28;20040;-79
2023/07/22 09:17:21;;;;;;;13.38;8.65;;;17.60;99.90;;;;;;5044417;28;20048;-80
2023/07/22 09:19:53;;;;;;;13.57;8.88;;;17.60;99.90;;;;;;5029550;28;20044;-83
2023/07/22 09:22:24;;;;;;;11.07;8.20;;;17.70;99.90;;;;;;5055337;28;20041;-77
2023/07/22 09:24:50;;;;;;;13.10;7.82;;;17.70;99.90;;;;;;5028519;28;20048;-77
2023/07/22 09:27:15;;;;;;;13.50;8.80;;;17.70;99.90;;;;;;5037942;28;20144;-79
2023/07/22 09:29:41;;;;;;;12.15;8.25;;;17.80;99.90;;;;;;5024871;28;20814;-79
2023/07/22 09:32:07;;;;;;;13.27;7.25;;;17.70;99.90;;;;;;5036716;28;20067;-78
2023/07/22 09:34:33;;;;;;;11.23;7.22;;;17.70;99.90;;;;;;5038223;28;20099;-78
2023/07/22 09:37:03;;;;;;;11.63;7.05;;;17.60;99.90;;;;;;5036842;28;20045;-78
2023/07/22 09:39:30;;;;;;;11.32;7.13;;;17.60;99.90;;;;;;5055895;28;20041;-78
2023/07/22 09:41:56;;;;;;;10.77;6.88;;;17.60;99.90;;;;;;5058861;28;20040;-77
2023/07/22 09:44:22;;;;;;;11.32;7.35;;;17.40;99.90;;;;;;5052737;28;20063;-77
2023/07/22 09:46:51;;;;;;;8.70;6.55;;;17.50;99.90;;;;;;5057048;28;20106;-78
2023/07/22 09:49:18;;;;;;;10.00;6.53;;;17.50;99.90;;;;;;5055625;28;20113;-78
2023/07/22 09:51:44;;;;;;;10.35;6.25;;;17.50;99.90;;;;;;5066874;28;20195;-78
2023/07/22 09:54:10;;;;;;;10.45;7.05;;;17.60;99.90;;;;;;5042767;28;20144;-77
2023/07/22 09:56:48;;;;;;;9.30;6.22;;;17.60;99.90;;;;;;5063547;28;20534;-78
2023/07/22 09:59:16;;;;;;;8.75;5.45;;;17.60;99.90;;;;;;5061646;28;20048;-78
2023/07/22 10:01:42;;;;;;;10.65;5.32;;;17.60;99.90;;;;;;5062923;28;20051;-79
2023/07/22 10:04:11;;;;;;;6.97;5.10;;;17.70;99.90;;;;;;5064113;28;20626;-79
2023/07/22 10:06:39;;;;;;;5.88;4.20;;;17.60;99.90;;;;;;5058841;28;20067;-77
2023/07/22 10:09:07;;;;;;;7.88;4.50;;;17.60;99.90;;;;;;5060236;28;20036;-78
2023/07/22 10:11:36;;;;;;;8.48;4.95;;;17.50;99.90;;;;;;5063835;28;20056;-78
2023/07/22 10:14:03;;;;;;;9.43;5.57;;;17.40;99.90;;;;;;5064369;28;20060;-75
2023/07/22 10:16:30;;;;;;;8.60;5.20;;;17.30;99.90;;;;;;5059466;28;20131;-73
2023/07/22 10:18:57;;;;;;;6.85;5.15;;;17.20;99.90;;;;;;5044135;28;20056;-80
2023/07/22 10:21:24;;;;;;;6.80;5.38;;;17.20;99.90;;;;;;5040826;28;20045;-81
2023/07/22 10:23:50;;;;;;;8.25;5.00;;;17.10;99.90;;;;;;5043676;28;20040;-82
2023/07/22 10:26:17;;;;;;;6.70;5.18;;;17.20;99.90;;;;;;5060749;28;20140;-84
2023/07/22 10:28:45;;;;;;;8.38;5.93;;;17.10;99.90;;;;;;5059338;28;20578;-82
2023/07/22 10:31:12;;;;;;;8.48;6.07;;;17.10;99.90;;;;;;5063972;28;20147;-82
2023/07/22 10:33:41;;;;;;;9.70;5.65;;;17.10;99.90;;;;;;5058192;28;20049;-81
2023/07/22 10:36:18;;;;;;;8.10;4.95;;;17.10;99.90;;;;;;5060415;28;20640;-85
2023/07/22 10:38:54;;;;;;;8.48;5.25;;;17.10;99.90;;;;;;5056170;28;20041;-83
2023/07/22 10:41:21;;;;;;;6.68;5.15;;;17.10;99.90;;;;;;5059228;28;20037;-83
2023/07/22 10:43:56;;;;;;;;;;;17.20;99.90;;;;;;5061159;28;20097;-85
2023/07/22 10:46:43;;;;;;;6.85;5.40;;;17.20;99.90;;;;;;5058700;28;19993;-85
2023/07/22 10:49:17;;;;;;;7.72;5.70;;;17.30;99.90;;;;;;5060469;28;20044;-85
2023/07/22 10:51:51;;;;;;;7.38;5.18;;;17.20;99.90;;;;;;5060087;28;20044;-85
2023/07/22 10:54:36;;;;;;;7.88;5.57;;;17.20;99.90;;;;;;5060975;28;20075;-85
2023/07/22 10:57:24;;;;;;;8.27;5.53;;;17.30;99.90;;;;;;5059240;28;20370;-85
2023/07/22 10:59:51;;;;;;;7.45;5.78;;;17.20;99.90;;;;;;5060880;28;20040;-85
2023/07/22 11:02:28;;;;;;;8.55;5.78;;;17.20;99.90;;;;;;5060310;28;20044;-84
2023/07/22 11:04:57;;;;;;;11.75;6.88;;;17.10;99.90;;;;;;5058712;28;20044;-87
2023/07/22 11:07:33;;;;;;;9.77;6.55;;;17.00;99.90;;;;;;5042178;28;20044;-83
2023/07/22 11:10:13;;;;;;;13.05;7.15;;;16.90;99.90;;;;;;5064074;28;20045;-82
2023/07/22 11:12:40;;;;;;;17.38;7.60;;;16.90;99.90;;;;;;5053826;28;20526;-80
2023/07/22 11:15:06;;;;;;;17.98;7.50;;;16.80;99.90;;;;;;5058279;28;20651;-79
2023/07/22 11:17:33;;;;;;;13.23;7.38;;;16.60;99.90;;;;;;5058655;28;20531;-80
2023/07/22 11:20:00;;;;;;;11.02;7.97;;;16.50;99.90;;;;;;5056873;28;20037;-81
2023/07/22 11:22:26;;;;;;;12.35;8.20;;;16.50;99.90;;;;;;5039702;28;20033;-83
2023/07/22 11:24:52;;;;;;;6.80;4.78;;;16.50;99.90;;;;;;5047507;28;20523;-81
2023/07/22 11:27:18;;;;;;;7.65;4.68;;;16.50;99.90;;;;;;5041430;28;20411;-80
2023/07/22 11:29:44;;;;;;;7.15;4.80;;;16.40;99.90;;;;;;5062135;28;20055;-79
2023/07/22 11:32:18;;;;;;;7.80;4.50;;;16.40;99.90;;;;;;5059023;28;20044;-77
2023/07/22 11:34:47;;;;;;;6.85;4.70;;;16.30;99.90;;;;;;5059234;28;20061;-86
2023/07/22 11:37:13;;;;;;;6.68;5.00;;;16.30;99.90;;;;;;5056955;28;20414;-81
2023/07/22 11:39:41;;;;;;;9.45;5.30;;;16.30;99.90;;;;;;5043087;28;20050;-79
2023/07/22 11:42:07;;;;;;;6.05;4.65;;;16.30;99.90;;;;;;5062767;28;20041;-76
2023/07/22 11:44:33;;;;;;;5.68;4.10;;;16.40;99.90;;;;;;5059771;28;20079;-76
2023/07/22 11:47:03;;;;;;;6.70;4.30;;;16.40;99.90;;;;;;5057274;28;20068;-75
2023/07/22 11:49:30;;;;;;;6.10;4.22;;;16.50;99.90;;;;;;5059003;28;21801;-76
2023/07/22 11:51:58;;;;;;;8.07;4.35;;;16.70;99.90;;;;;;5060724;28;20040;-77
2023/07/22 11:54:24;;;;;;;6.82;4.18;;;16.70;99.90;;;;;;5062254;28;20206;-72
2023/07/22 11:56:50;;;;;;;6.00;4.20;;;16.80;99.90;;;;;;5064102;28;20055;-77
2023/07/22 11:59:16;;;;;;;6.53;4.00;;;16.90;99.90;;;;;;5063815;28;20037;-76
2023/07/22 12:01:45;;;;;;;6.60;4.40;;;17.10;99.90;;;;;;5060622;28;20170;-74
2023/07/22 12:04:13;;;;;;;6.13;4.03;;;17.30;99.90;;;;;;5055950;28;20037;-73
2023/07/22 12:06:40;;;;;;;6.57;4.40;;;17.40;99.90;;;;;;5044772;28;20519;-76
2023/07/22 12:09:09;;;;;;;7.90;4.90;;;17.60;99.90;;;;;;5040095;28;20048;-72
2023/07/22 12:11:35;;;;;;;7.35;4.70;;;17.80;99.90;;;;;;5047693;28;20056;-75
2023/07/22 12:14:08;;;;;;;7.57;5.13;;;18.00;99.90;;;;;;5040943;28;20500;-73
2023/07/22 12:16:38;;;;;;;8.35;5.53;;;18.20;99.90;;;;;;5058906;28;20040;-74
2023/07/22 12:19:08;;;;;;;8.77;5.63;;;18.50;99.90;;;;;;5073487;28;20598;-74
2023/07/22 12:21:35;;;;;;;7.25;5.55;;;18.70;99.90;;;;;;5037241;28;20056;-75
2023/07/22 12:24:02;;;;;;;10.38;6.00;;;18.90;99.90;;;;;;5059320;28;20101;-75
2023/07/22 12:26:29;;;;;;;8.02;6.05;;;19.10;99.90;;;;;;5059613;28;20056;-76
2023/07/22 12:28:54;;;;;;;8.68;6.22;;;19.10;99.90;;;;;;5036021;28;20419;-78
2023/07/22 12:31:20;;;;;;;8.40;6.90;;;19.00;99.90;;;;;;5024778;28;20049;-75
2023/07/22 12:33:46;;;;;;;8.85;6.63;;;19.00;99.90;;;;;;5046291;28;20041;-75
2023/07/22 12:36:11;;;;;;;10.00;6.10;;;19.00;99.90;;;;;;5026130;28;20040;-75
2023/07/22 12:38:37;;;;;;;8.20;5.80;;;18.80;99.90;;;;;;5057345;28;20041;-73